Airport View

Enter AWOS ICAO identifier for current METAR.

ex. KFNL

KW96 202230Z AUTO 00000KT 10SM CLR 21/18 A3021 RMK AO1 T02140183

20 Oct 2020 22:27

Frequency: 119.875

Phone: 804-932-8863

Other Area AWOS: KRIC - KFYJ - KOFP - KFCI

TAF KRIC 201726Z 2018/2118 21004KT P6SM FEW040 FM210300 00000KT P6SM BKN020 FM210600 00000KT 1SM BR OVC004 FM211500 VRB03KT P6SM BKN012 FM211700 18004KT P6SM BKN050